Kolobrzeg, Poland
Current Conditions -  °F | °C
As of 3:20 PM on Monday 20 Oct 2014 (Local Time) from EDAH Reporting Station
Clear Clear  
Wind Chill: 59°   Ceiling: Unl
Heat Index: 59°   Visibility: 6mi
Dew Point: 48°   Wind: 13mph
Humidity: 67%   Direction: 270°W
Pressure: 29.77"   Gusts: NA
Location:  54.19°N, 15.57°E
Report Text: EDAH 201320Z 27011KT 250V310 CAVOK 15/09 Q1008
Loading
Personal Weather Stations






























Interactive Weather Map
Tropical Storm Tracking
New forecast layout! Learn more

10-Day Weather Forecast

Advertisements
Track Severe Weather on mobile